createdAt,value
2019-05-25T00:01:54.544Z,16.90
2019-05-25T00:06:04.849Z,16.80
2019-05-25T00:10:16.813Z,16.80
2019-05-25T00:14:27.143Z,16.90
2019-05-25T00:18:37.464Z,16.80
2019-05-25T00:22:47.761Z,16.80
2019-05-25T00:26:58.233Z,16.80
2019-05-25T00:31:08.664Z,16.80
2019-05-25T00:35:18.986Z,16.90
2019-05-25T00:39:29.632Z,16.90
2019-05-25T00:43:40.013Z,16.80
2019-05-25T00:47:52.580Z,16.70
2019-05-25T00:52:02.904Z,16.60
2019-05-25T00:56:13.113Z,16.60
2019-05-25T01:00:23.597Z,16.50
2019-05-25T01:04:37.422Z,16.50
2019-05-25T01:08:47.856Z,16.40
2019-05-25T01:12:58.160Z,16.40
2019-05-25T01:17:08.411Z,16.40
2019-05-25T01:21:18.717Z,16.40
2019-05-25T01:25:30.567Z,16.30
2019-05-25T01:29:40.865Z,16.30
2019-05-25T01:33:51.206Z,16.20
2019-05-25T01:38:01.549Z,16.10
2019-05-25T01:42:11.847Z,16.20
2019-05-25T01:46:22.645Z,16.10
2019-05-25T01:50:34.013Z,16.10
2019-05-25T01:54:59.062Z,16.10
2019-05-25T01:58:57.261Z,16.00
2019-05-25T02:03:08.128Z,16.00
2019-05-25T02:07:18.486Z,15.90
2019-05-25T02:11:28.688Z,15.80
2019-05-25T02:15:39.120Z,15.70
2019-05-25T02:19:51.017Z,15.60
2019-05-25T02:24:01.226Z,15.50
2019-05-25T02:28:11.558Z,15.40
2019-05-25T02:32:21.773Z,15.40
2019-05-25T02:36:32.085Z,15.30
2019-05-25T02:40:43.694Z,15.20
2019-05-25T02:44:54.792Z,15.20
2019-05-25T02:49:05.204Z,15.10
2019-05-25T02:53:15.517Z,15.00
2019-05-25T02:57:25.848Z,14.90
2019-05-25T03:01:37.210Z,14.80
2019-05-25T03:05:49.211Z,14.70
2019-05-25T03:10:00.700Z,14.60
2019-05-25T03:14:12.637Z,14.50
2019-05-25T03:18:22.980Z,14.40
2019-05-25T03:22:33.453Z,14.30
2019-05-25T03:26:43.852Z,14.30
2019-05-25T03:30:55.528Z,14.20
2019-05-25T03:35:07.374Z,14.20
2019-05-25T03:39:17.699Z,14.10
2019-05-25T03:43:28.049Z,14.10
2019-05-25T03:47:38.345Z,14.20
2019-05-25T03:51:48.652Z,14.30
2019-05-25T03:56:05.916Z,14.40
2019-05-25T04:00:11.308Z,14.40
2019-05-25T04:04:21.517Z,14.40
2019-05-25T04:08:31.870Z,14.60
2019-05-25T04:12:42.176Z,14.60
2019-05-25T04:16:52.378Z,14.50
2019-05-25T04:21:02.681Z,14.60
2019-05-25T04:25:12.950Z,14.50
2019-05-25T04:29:23.293Z,14.50
2019-05-25T04:33:33.953Z,14.40
2019-05-25T04:37:44.306Z,14.60
2019-05-25T04:41:54.744Z,14.90
2019-05-25T04:46:05.244Z,15.10
2019-05-25T04:50:15.587Z,15.30
2019-05-25T04:54:25.915Z,15.30
2019-05-25T04:58:37.353Z,15.50
2019-05-25T05:02:47.807Z,15.80
2019-05-25T05:06:59.501Z,16.10
2019-05-25T05:11:10.569Z,16.10
2019-05-25T05:15:21.774Z,16.20
2019-05-25T05:19:32.119Z,15.90
2019-05-25T05:23:42.463Z,15.60
2019-05-25T05:27:52.803Z,15.80
2019-05-25T05:32:04.608Z,16.10
2019-05-25T05:36:16.849Z,16.30
2019-05-25T05:40:27.175Z,16.70
2019-05-25T05:44:39.857Z,16.70
2019-05-25T05:48:51.905Z,16.70
2019-05-25T05:53:03.955Z,16.70
2019-05-25T05:57:14.221Z,16.60
2019-05-25T06:01:25.062Z,16.50
2019-05-25T06:05:35.398Z,16.50
2019-05-25T06:09:45.796Z,16.70
2019-05-25T06:13:56.092Z,16.50
2019-05-25T06:18:07.777Z,16.40
2019-05-25T06:22:18.183Z,16.30
2019-05-25T06:26:28.384Z,16.70
2019-05-25T06:30:38.729Z,17.10
2019-05-25T06:34:49.065Z,17.40
2019-05-25T06:38:59.462Z,17.00
2019-05-25T06:43:10.340Z,16.80
2019-05-25T06:47:22.278Z,16.80
2019-05-25T06:51:32.584Z,16.90
2019-05-25T06:55:43.781Z,17.20
2019-05-25T06:59:54.677Z,17.30
2019-05-25T07:04:05.215Z,18.00
2019-05-25T07:08:17.293Z,18.70
2019-05-25T07:12:30.032Z,18.70
2019-05-25T07:16:41.934Z,18.60
2019-05-25T07:20:52.270Z,18.80
2019-05-25T07:25:06.323Z,18.90
2019-05-25T07:29:17.176Z,18.70
2019-05-25T07:33:30.289Z,18.10
2019-05-25T07:37:42.134Z,18.10
2019-05-25T07:41:52.444Z,18.20
2019-05-25T07:46:02.802Z,18.10
2019-05-25T07:50:14.613Z,17.90
2019-05-25T07:54:24.825Z,17.70
2019-05-25T07:58:35.292Z,17.50
2019-05-25T08:02:48.957Z,17.20
2019-05-25T08:06:59.296Z,17.70
2019-05-25T08:11:09.636Z,17.50
2019-05-25T08:15:20.216Z,17.80
2019-05-25T08:19:30.609Z,17.80
2019-05-25T08:23:40.954Z,18.60
2019-05-25T08:27:51.259Z,19.00
2019-05-25T08:32:01.506Z,18.90
2019-05-25T08:36:14.933Z,18.70
2019-05-25T08:40:26.582Z,18.90
2019-05-25T08:44:36.827Z,19.20
2019-05-25T08:48:47.171Z,19.50
2019-05-25T08:52:57.518Z,19.00
2019-05-25T08:57:08.949Z,19.10
2019-05-25T09:01:19.362Z,18.80
2019-05-25T09:05:29.609Z,19.00
2019-05-25T09:09:39.941Z,19.20
2019-05-25T09:13:50.282Z,19.00
2019-05-25T09:18:00.535Z,18.80
2019-05-25T09:22:10.904Z,18.80
2019-05-25T09:26:21.270Z,18.80
2019-05-25T09:30:31.582Z,19.40
2019-05-25T09:34:41.970Z,20.20
2019-05-25T09:38:53.834Z,20.20
2019-05-25T09:43:04.092Z,20.60
2019-05-25T09:47:14.500Z,20.30
2019-05-25T09:51:24.792Z,20.60
2019-05-25T09:55:35.134Z,20.60
2019-05-25T09:59:47.007Z,20.40
2019-05-25T10:03:57.341Z,20.80
2019-05-25T10:08:08.851Z,21.00
2019-05-25T10:12:19.402Z,20.80
2019-05-25T10:16:29.748Z,20.80
2019-05-25T10:20:40.909Z,21.00
2019-05-25T10:24:51.205Z,21.00
2019-05-25T10:29:01.560Z,21.00
2019-05-25T10:33:11.903Z,21.30
2019-05-25T10:37:22.293Z,21.40
2019-05-25T10:41:32.592Z,21.60
2019-05-25T10:45:42.934Z,21.70
2019-05-25T10:49:53.231Z,22.20
2019-05-25T10:54:03.743Z,21.90
2019-05-25T10:58:14.111Z,21.60
2019-05-25T11:02:24.478Z,21.40
2019-05-25T11:06:35.049Z,21.30
2019-05-25T11:10:45.364Z,21.60
2019-05-25T11:14:55.697Z,21.90
2019-05-25T11:19:06.050Z,21.90
2019-05-25T11:23:17.956Z,22.40
2019-05-25T11:27:28.466Z,22.10
2019-05-25T11:31:40.116Z,22.20
2019-05-25T11:35:50.246Z,22.00
2019-05-25T11:40:00.606Z,22.30
2019-05-25T11:44:11.003Z,22.20
2019-05-25T11:48:22.038Z,22.10
2019-05-25T11:52:32.644Z,22.30
2019-05-25T11:56:43.097Z,22.30
2019-05-25T12:00:54.161Z,22.20
2019-05-25T12:05:09.371Z,21.80
2019-05-25T12:09:19.721Z,21.60
2019-05-25T12:13:32.194Z,21.70
2019-05-25T12:17:42.138Z,21.20
2019-05-25T12:21:52.614Z,21.20
2019-05-25T12:26:03.037Z,21.00
2019-05-25T12:30:13.982Z,20.70
2019-05-25T12:34:24.342Z,20.90
2019-05-25T12:38:36.044Z,20.80
2019-05-25T12:42:46.345Z,20.50
2019-05-25T12:46:56.688Z,20.50
2019-05-25T12:51:07.037Z,20.80
2019-05-25T12:55:17.508Z,21.00
2019-05-25T12:59:27.975Z,21.40
2019-05-25T13:03:38.452Z,21.50
2019-05-25T13:07:48.823Z,21.80
2019-05-25T13:11:59.130Z,21.60
2019-05-25T13:16:09.459Z,21.40
2019-05-25T13:20:19.819Z,21.10
2019-05-25T13:24:30.166Z,21.10
2019-05-25T13:28:40.564Z,21.30
2019-05-25T13:32:50.931Z,21.50
2019-05-25T13:37:02.084Z,21.80
2019-05-25T13:41:14.261Z,22.10
2019-05-25T13:45:24.622Z,22.00
2019-05-25T13:49:34.953Z,21.60
2019-05-25T13:53:45.261Z,21.40
2019-05-25T13:57:55.631Z,21.80
2019-05-25T14:02:06.008Z,21.70
2019-05-25T14:06:16.377Z,21.20
2019-05-25T14:10:26.781Z,21.10
2019-05-25T14:14:37.125Z,21.20
2019-05-25T14:18:48.050Z,21.10
2019-05-25T14:22:58.277Z,21.20
2019-05-25T14:27:08.632Z,21.10
2019-05-25T14:31:18.932Z,20.90
2019-05-25T14:35:29.240Z,20.80
2019-05-25T14:39:39.575Z,20.70
2019-05-25T14:43:49.973Z,20.60
2019-05-25T14:48:00.313Z,20.70
2019-05-25T14:52:10.644Z,20.80
2019-05-25T14:56:20.913Z,20.70
2019-05-25T15:00:31.321Z,20.50
2019-05-25T15:04:41.757Z,20.50
2019-05-25T15:08:52.174Z,20.60
2019-05-25T15:13:03.117Z,20.70
2019-05-25T15:17:14.458Z,20.80
2019-05-25T15:21:25.748Z,20.70
2019-05-25T15:25:37.285Z,20.70
2019-05-25T15:29:47.816Z,20.40
2019-05-25T15:33:59.932Z,20.20
2019-05-25T15:38:10.195Z,19.80
2019-05-25T15:42:20.531Z,19.90
2019-05-25T15:46:32.614Z,19.80
2019-05-25T15:50:42.942Z,19.60
2019-05-25T15:54:53.374Z,19.40
2019-05-25T15:59:04.066Z,19.50
2019-05-25T16:03:15.209Z,19.50
2019-05-25T16:07:25.701Z,19.60
2019-05-25T16:11:36.002Z,19.60
2019-05-25T16:15:47.585Z,19.50
2019-05-25T16:19:57.985Z,19.60
2019-05-25T16:24:08.427Z,19.70
2019-05-25T16:28:18.939Z,19.40
2019-05-25T16:32:29.295Z,19.40
2019-05-25T16:36:39.742Z,19.40
2019-05-25T16:40:50.250Z,19.30
2019-05-25T16:45:05.394Z,19.10
2019-05-25T16:49:13.140Z,19.10
2019-05-25T16:53:23.457Z,18.90
2019-05-25T16:57:33.782Z,18.80
2019-05-25T17:01:48.566Z,18.70
2019-05-25T17:05:57.773Z,18.60
2019-05-25T17:10:08.108Z,18.50
2019-05-25T17:14:18.449Z,18.40
2019-05-25T17:18:28.689Z,18.20
2019-05-25T17:22:39.032Z,18.10
2019-05-25T17:26:51.042Z,18.00
2019-05-25T17:31:01.382Z,18.00
2019-05-25T17:35:12.632Z,18.00
2019-05-25T17:39:23.055Z,18.10
2019-05-25T17:43:33.937Z,17.90
2019-05-25T17:47:45.913Z,17.60
2019-05-25T17:51:56.535Z,17.50
2019-05-25T17:56:07.001Z,17.40
2019-05-25T18:00:32.265Z,17.30
2019-05-25T18:04:43.394Z,17.20
2019-05-25T18:08:53.637Z,17.10
2019-05-25T18:13:04.113Z,16.90
2019-05-25T18:17:14.468Z,16.90
2019-05-25T18:21:24.683Z,16.80
2019-05-25T18:25:35.647Z,16.70
2019-05-25T18:29:47.357Z,16.50
2019-05-25T18:33:57.605Z,16.40
2019-05-25T18:38:07.907Z,16.30
2019-05-25T18:42:18.405Z,16.30
2019-05-25T18:46:28.925Z,16.10
2019-05-25T18:50:39.228Z,15.90
2019-05-25T18:54:49.614Z,15.80
2019-05-25T18:59:00.194Z,15.60
2019-05-25T19:03:10.612Z,15.60
2019-05-25T19:07:21.064Z,15.50
2019-05-25T19:11:35.118Z,15.40
2019-05-25T19:15:44.353Z,15.30
2019-05-25T19:19:54.647Z,15.20
2019-05-25T19:24:04.864Z,15.10
2019-05-25T19:28:15.302Z,15.00
2019-05-25T19:32:25.492Z,14.90
2019-05-25T19:36:36.023Z,14.90
2019-05-25T19:40:49.189Z,14.80
2019-05-25T19:44:59.668Z,14.70
2019-05-25T19:49:13.305Z,14.70
2019-05-25T19:53:24.927Z,14.50
2019-05-25T19:57:36.548Z,14.60
2019-05-25T20:01:49.241Z,14.60
2019-05-25T20:05:59.589Z,14.50
2019-05-25T20:10:10.832Z,14.40
2019-05-25T20:14:21.154Z,14.50
2019-05-25T20:18:31.482Z,14.50
2019-05-25T20:22:41.731Z,14.40
2019-05-25T20:26:52.044Z,14.30
2019-05-25T20:31:02.451Z,14.00
2019-05-25T20:35:12.926Z,13.80
2019-05-25T20:39:24.554Z,13.70
2019-05-25T20:43:35.282Z,13.90
2019-05-25T20:47:45.659Z,14.00
2019-05-25T20:51:56.033Z,14.10
2019-05-25T20:56:06.391Z,14.10
2019-05-25T21:00:16.837Z,14.10
2019-05-25T21:04:27.241Z,13.90
2019-05-25T21:08:38.252Z,13.60
2019-05-25T21:12:48.674Z,13.30
2019-05-25T21:16:59.027Z,13.20
2019-05-25T21:21:10.449Z,13.10
2019-05-25T21:25:20.823Z,13.00
2019-05-25T21:29:31.053Z,12.90
2019-05-25T21:33:41.507Z,12.80
2019-05-25T21:37:52.159Z,12.70
2019-05-25T21:42:02.578Z,12.70
2019-05-25T21:46:12.995Z,12.70
2019-05-25T21:50:23.549Z,12.80
2019-05-25T21:54:33.904Z,13.10
2019-05-25T21:58:44.254Z,13.00
2019-05-25T22:02:54.808Z,13.00
2019-05-25T22:07:05.510Z,12.90
2019-05-25T22:11:15.960Z,13.00
2019-05-25T22:15:26.448Z,13.00
2019-05-25T22:19:37.090Z,13.00
2019-05-25T22:23:47.546Z,13.00
2019-05-25T22:27:58.085Z,12.90
2019-05-25T22:32:08.577Z,12.90
2019-05-25T22:36:18.990Z,12.70
2019-05-25T22:40:29.291Z,12.70
2019-05-25T22:44:39.742Z,12.60
2019-05-25T22:48:51.924Z,12.50
2019-05-25T22:53:02.313Z,12.50
2019-05-25T22:57:12.634Z,12.50
2019-05-25T23:01:22.950Z,12.60
2019-05-25T23:05:34.898Z,12.60
2019-05-25T23:09:45.202Z,12.60
2019-05-25T23:13:55.662Z,12.60
2019-05-25T23:18:05.894Z,12.60
2019-05-25T23:22:16.345Z,12.50
2019-05-25T23:26:26.651Z,12.40
2019-05-25T23:30:36.959Z,12.40
2019-05-25T23:34:47.188Z,12.40
2019-05-25T23:38:57.531Z,12.30
2019-05-25T23:43:07.905Z,12.30
2019-05-25T23:47:18.400Z,12.30
2019-05-25T23:51:28.739Z,12.20
2019-05-25T23:55:39.077Z,12.10
2019-05-25T23:59:49.428Z,12.00
